Time;durP1;ratioP1;P1;durP2;ratioP2;P2;SDS_P1;SDS_P2;PMS_P1;PMS_P2;Temp;Humidity;BMP_temperature;BMP_pressure;BME280_temperature;BME280_humidity;BME280_pressure;Samples;Min_cycle;Max_cycle;Signal;HPM_P1;HPM_P2
2021/12/08 00:00:44;;;;;;;0.47;0.47;;;;;;;2.80;92.82;97573.00;5004163;28;20068;-70
2021/12/08 00:03:12;;;;;;;0.00;0.00;;;;;;;2.75;93.07;97576.41;4981003;28;20031;-73
2021/12/08 00:05:40;;;;;;;0.00;0.00;;;;;;;2.72;93.31;97590.13;4994363;28;20069;-71
2021/12/08 00:08:08;;;;;;;0.10;0.10;;;;;;;2.73;93.11;97586.41;5005796;28;20069;-73
2021/12/08 00:13:07;;;;;;;0.00;0.00;;;;;;;2.75;93.46;97602.81;4991917;28;20030;-72
2021/12/08 00:15:35;;;;;;;0.00;0.00;;;;;;;2.64;93.64;97594.06;5006987;28;20088;-72
2021/12/08 00:18:04;;;;;;;0.00;0.00;;;;;;;2.64;93.33;97599.34;4982770;28;20038;-70
2021/12/08 00:20:32;;;;;;;0.00;0.00;;;;;;;2.61;93.56;97593.78;5002449;28;20034;-73
2021/12/08 00:22:58;;;;;;;0.00;0.00;;;;;;;2.63;93.78;97607.53;4997845;28;20104;-73
2021/12/08 00:25:24;;;;;;;0.00;0.00;;;;;;;2.64;93.67;97623.09;4996685;28;20042;-73
2021/12/08 00:27:50;;;;;;;0.00;0.00;;;;;;;2.59;94.04;97622.28;5013560;28;20029;-73
2021/12/08 00:30:16;;;;;;;0.00;0.00;;;;;;;2.66;93.93;97626.28;4992808;28;20041;-75
2021/12/08 00:32:42;;;;;;;0.20;0.20;;;;;;;2.60;93.95;97622.03;4994426;28;20038;-73
2021/12/08 00:35:08;;;;;;;0.00;0.00;;;;;;;2.59;94.20;97617.00;5010804;28;20026;-74
2021/12/08 00:37:34;;;;;;;0.10;0.10;;;;;;;2.65;94.44;97631.78;5011712;28;20034;-74
2021/12/08 00:39:59;;;;;;;0.00;0.00;;;;;;;2.65;94.08;97637.06;4981593;28;20034;-73
2021/12/08 00:42:25;;;;;;;0.00;0.00;;;;;;;2.71;94.60;97639.50;4994224;28;20034;-73
2021/12/08 00:44:51;;;;;;;0.00;0.00;;;;;;;2.72;94.46;97630.53;4995645;28;20431;-74
2021/12/08 00:47:17;;;;;;;0.00;0.00;;;;;;;2.73;93.97;97631.31;4984555;28;20616;-72
2021/12/08 00:49:44;;;;;;;0.00;0.00;;;;;;;2.71;94.46;97636.03;4992137;28;20044;-72
2021/12/08 00:52:10;;;;;;;0.00;0.00;;;;;;;2.75;94.18;97633.66;4977234;28;20037;-71
2021/12/08 00:54:36;;;;;;;0.00;0.00;;;;;;;2.63;94.29;97626.78;5008390;28;20038;-71
2021/12/08 00:57:02;;;;;;;0.00;0.00;;;;;;;2.66;94.41;97625.47;5013193;28;20366;-72
2021/12/08 00:59:27;;;;;;;0.00;0.00;;;;;;;2.76;94.46;97645.81;5007949;28;20050;-72
2021/12/08 01:01:53;;;;;;;0.00;0.00;;;;;;;2.70;94.27;97635.25;4993821;28;20031;-72
2021/12/08 01:04:18;;;;;;;0.00;0.00;;;;;;;2.66;94.71;97628.09;4993853;28;20037;-72
2021/12/08 01:06:44;;;;;;;0.00;0.00;;;;;;;2.78;94.07;97649.00;4996716;28;20415;-71
2021/12/08 01:09:12;;;;;;;0.00;0.00;;;;;;;2.79;94.39;97653.25;4993933;28;20227;-71
2021/12/08 01:11:38;;;;;;;0.00;0.00;;;;;;;2.77;94.37;97657.97;4976310;28;20081;-69
2021/12/08 01:14:05;;;;;;;0.00;0.00;;;;;;;2.80;94.39;97670.69;4996176;28;20069;-71
2021/12/08 01:16:31;;;;;;;0.00;0.00;;;;;;;2.77;94.08;97664.06;4999784;28;20022;-70
2021/12/08 01:18:57;;;;;;;0.00;0.00;;;;;;;2.79;94.29;97658.53;4993829;28;20414;-72
2021/12/08 01:21:22;;;;;;;0.00;0.00;;;;;;;2.84;94.25;97669.88;5004984;28;20022;-70
2021/12/08 01:23:49;;;;;;;0.00;0.00;;;;;;;2.80;94.08;97654.84;4993578;28;20080;-70
2021/12/08 01:26:15;;;;;;;0.00;0.00;;;;;;;2.79;94.07;97666.44;4993315;28;20131;-70
2021/12/08 01:28:40;;;;;;;0.00;0.00;;;;;;;2.80;93.91;97675.97;4993173;28;20066;-71
2021/12/08 01:31:06;;;;;;;0.00;0.00;;;;;;;2.78;93.80;97673.56;4993115;28;20160;-72
2021/12/08 01:33:34;;;;;;;0.00;0.00;;;;;;;2.78;93.83;97668.28;4993425;28;20409;-69
2021/12/08 01:36:03;;;;;;;0.00;0.00;;;;;;;2.76;93.79;97675.69;4993208;28;20037;-69
2021/12/08 01:38:30;;;;;;;0.00;0.00;;;;;;;2.77;93.57;97679.91;4993756;28;20540;-68
2021/12/08 01:40:56;;;;;;;0.13;0.13;;;;;;;2.78;93.85;97685.97;5012560;28;20034;-71
2021/12/08 01:43:29;;;;;;;0.00;0.00;;;;;;;2.68;94.21;97665.59;4997860;28;20117;-71
2021/12/08 01:46:01;;;;;;;0.00;0.00;;;;;;;2.72;94.43;97672.75;5008692;28;20030;-72
2021/12/08 01:48:35;;;;;;;0.10;0.10;;;;;;;2.74;94.63;97683.06;5006204;28;20030;-71
2021/12/08 01:51:11;;;;;;;0.00;0.00;;;;;;;2.76;94.46;97673.03;5011859;28;20117;-72
2021/12/08 01:53:39;;;;;;;5.63;1.38;;;;;;;2.65;94.38;97671.38;4995656;28;20037;-68
2021/12/08 01:56:05;;;;;;;0.00;0.00;;;;;;;2.77;94.58;97694.94;4997229;28;20034;-69
2021/12/08 01:58:31;;;;;;;0.47;0.47;;;;;;;2.62;94.55;97666.63;4996461;28;20038;-69
2021/12/08 02:01:00;;;;;;;0.00;0.00;;;;;;;2.77;94.77;97694.94;4998936;28;20034;-69
2021/12/08 02:03:27;;;;;;;0.00;0.00;;;;;;;2.74;94.82;97688.34;4992763;28;20045;-69
2021/12/08 02:05:53;;;;;;;0.00;0.00;;;;;;;2.77;95.09;97695.75;4996332;28;20061;-70
2021/12/08 02:08:19;;;;;;;0.00;0.00;;;;;;;2.74;95.03;97693.63;4996156;28;20054;-70
2021/12/08 02:10:44;;;;;;;0.00;0.00;;;;;;;2.75;94.76;97691.75;4992816;28;20089;-70
2021/12/08 02:13:11;;;;;;;0.00;0.00;;;;;;;2.72;94.64;97687.78;4997158;28;20064;-71
2021/12/08 02:15:38;;;;;;;0.00;0.00;;;;;;;2.82;95.13;97705.50;4992539;28;20417;-72
2021/12/08 02:18:06;;;;;;;0.00;0.00;;;;;;;2.78;94.58;97702.59;4993959;28;20073;-71
2021/12/08 02:20:33;;;;;;;0.20;0.20;;;;;;;2.81;95.04;97703.94;4995656;28;20035;-73
2021/12/08 02:22:59;;;;;;;0.00;0.00;;;;;;;2.78;94.81;97702.59;4976684;28;20038;-71
2021/12/08 02:25:27;;;;;;;0.00;0.00;;;;;;;2.84;94.61;97719.25;4993364;28;20037;-72
2021/12/08 02:27:55;;;;;;;0.30;0.30;;;;;;;2.79;94.75;97708.69;4992681;28;20038;-71
2021/12/08 02:31:11;;;;;;;0.00;0.00;;;;;;;2.88;94.57;97725.59;4995098;28;20034;-71
2021/12/08 02:47:29;;;;;;;0.00;0.00;;;;;;;2.93;94.47;97740.69;4990152;28;20128;-71
2021/12/08 02:49:56;;;;;;;0.00;0.00;;;;;;;2.93;94.12;97749.41;5008334;28;20096;-70
2021/12/08 02:52:21;;;;;;;0.00;0.00;;;;;;;2.94;94.25;97750.19;4997657;28;20069;-70
2021/12/08 02:54:49;;;;;;;0.00;0.00;;;;;;;2.95;94.28;97746.50;5000148;28;20061;-70
2021/12/08 02:57:17;;;;;;;0.00;0.00;;;;;;;2.87;94.12;97740.66;5005861;28;20026;-70
2021/12/08 02:59:45;;;;;;;0.00;0.00;;;;;;;2.86;94.06;97725.88;5008164;28;20113;-71
2021/12/08 03:02:10;;;;;;;0.00;0.00;;;;;;;2.94;94.36;97755.47;5000864;28;21219;-70
2021/12/08 03:04:36;;;;;;;0.00;0.00;;;;;;;2.92;94.09;97754.94;4991850;28;20066;-70
2021/12/08 03:07:03;;;;;;;0.00;0.00;;;;;;;2.91;93.65;97766.56;5000502;28;20405;-71
2021/12/08 03:09:28;;;;;;;0.00;0.00;;;;;;;2.94;94.29;97761.56;5002699;28;20042;-71
2021/12/08 03:11:57;;;;;;;0.00;0.00;;;;;;;2.88;94.14;97754.66;5006392;28;20057;-71
2021/12/08 03:14:25;;;;;;;0.00;0.00;;;;;;;2.87;93.87;97761.00;5006269;28;20031;-72
2021/12/08 03:16:54;;;;;;;0.00;0.00;;;;;;;2.87;94.09;97753.09;4994403;28;20065;-73
2021/12/08 03:19:22;;;;;;;0.00;0.00;;;;;;;2.94;93.74;97773.97;5004302;28;20102;-72
2021/12/08 03:21:48;;;;;;;0.00;0.00;;;;;;;2.91;94.13;97772.63;4992273;28;20036;-73
2021/12/08 03:26:51;;;;;;;0.00;0.00;;;;;;;3.01;94.38;97790.38;5003920;28;20030;-71
2021/12/08 03:30:12;;;;;;;0.00;0.00;;;;;;;2.99;94.29;97793.28;4978852;28;20046;-72
2021/12/08 03:32:12;;;;;;;0.20;0.20;;;;;;;3.02;93.83;97791.97;4989154;28;20056;-73
2021/12/08 03:34:41;;;;;;;0.00;0.00;;;;;;;3.00;94.05;97797.53;4993352;28;20172;-71
2021/12/08 03:37:08;;;;;;;0.00;0.00;;;;;;;2.95;94.24;97797.47;4997729;28;20036;-71
2021/12/08 03:39:38;;;;;;;0.00;0.00;;;;;;;2.99;93.89;97803.84;4994477;28;20467;-70
2021/12/08 03:42:04;;;;;;;0.00;0.00;;;;;;;2.95;93.97;97796.69;4991489;28;20034;-72
2021/12/08 03:44:29;;;;;;;0.00;0.00;;;;;;;2.98;93.97;97806.72;4992588;28;20061;-70
2021/12/08 03:47:00;;;;;;;0.00;0.00;;;;;;;2.93;93.63;97796.13;5008202;28;20112;-71
2021/12/08 03:49:27;;;;;;;0.00;0.00;;;;;;;2.86;93.76;97785.81;4982390;28;20034;-73
2021/12/08 03:51:58;;;;;;;0.00;0.00;;;;;;;2.98;94.07;97814.66;4997417;28;20041;-71
2021/12/08 03:54:23;;;;;;;0.00;0.00;;;;;;;2.96;93.69;97808.84;5002680;28;20124;-73
2021/12/08 03:56:49;;;;;;;0.00;0.00;;;;;;;3.01;93.96;97828.13;4998841;28;20054;-70
2021/12/08 03:59:14;;;;;;;0.00;0.00;;;;;;;2.98;93.80;97825.22;5002884;28;20042;-71
2021/12/08 04:01:40;;;;;;;0.00;0.00;;;;;;;2.96;93.54;97828.13;5002340;28;20034;-70
2021/12/08 04:04:07;;;;;;;0.00;0.00;;;;;;;3.02;93.97;97834.22;5007146;28;20508;-72
2021/12/08 04:06:44;;;;;;;0.00;0.00;;;;;;;3.02;93.74;97850.84;5003785;28;20046;-74
2021/12/08 04:09:18;;;;;;;2.47;0.63;;;;;;;3.06;93.59;97855.66;4992508;28;20460;-70
2021/12/08 04:11:46;;;;;;;0.00;0.00;;;;;;;3.03;93.80;97857.75;4997547;28;20045;-71
2021/12/08 04:14:15;;;;;;;0.00;0.00;;;;;;;3.02;93.61;97860.63;5006209;28;20037;-70
2021/12/08 04:16:47;;;;;;;0.00;0.00;;;;;;;3.02;93.28;97852.72;5011379;28;20042;-70
2021/12/08 04:19:12;;;;;;;0.00;0.00;;;;;;;3.02;93.24;97860.63;5002288;28;20033;-71
2021/12/08 04:21:40;;;;;;;0.00;0.00;;;;;;;2.99;93.31;97861.13;5010780;28;20037;-70
2021/12/08 04:24:06;;;;;;;0.00;0.00;;;;;;;2.96;93.20;97857.16;4978660;28;20394;-71
2021/12/08 04:26:37;;;;;;;0.00;0.00;;;;;;;2.92;92.93;97850.00;5002010;28;20034;-72
2021/12/08 04:29:07;;;;;;;0.00;0.00;;;;;;;2.93;93.16;97841.03;4997224;28;20069;-71
2021/12/08 04:31:36;;;;;;;0.00;0.00;;;;;;;2.97;92.51;97866.69;5003692;28;20106;-72
2021/12/08 04:34:12;;;;;;;0.65;0.65;;;;;;;2.96;92.26;97859.03;4995066;28;20093;-71
2021/12/08 04:36:44;;;;;;;0.00;0.00;;;;;;;3.01;92.10;97878.31;4995435;28;20036;-71
2021/12/08 04:39:47;;;;;;;0.00;0.00;;;;;;;3.02;91.95;97885.19;5008538;28;20054;-72
2021/12/08 04:42:17;;;;;;;0.00;0.00;;;;;;;2.87;91.90;97866.63;4995495;28;20037;-72
2021/12/08 04:44:49;;;;;;;0.00;0.00;;;;;;;3.04;91.28;97887.59;4994374;28;20060;-70
2021/12/08 05:03:17;;;;;;;0.00;0.00;;;;;;;3.09;90.13;97914.03;4993651;28;20030;-73
2021/12/08 05:06:06;;;;;;;0.20;0.20;;;;;;;3.09;89.45;97915.88;4994009;28;20085;-72
2021/12/08 05:08:43;;;;;;;0.00;0.00;;;;;;;3.02;88.45;97911.59;4997337;28;20409;-72
2021/12/08 05:11:13;;;;;;;0.00;0.00;;;;;;;2.94;88.51;97903.38;4977005;28;20034;-72
2021/12/08 05:13:41;;;;;;;0.10;0.10;;;;;;;3.13;88.28;97930.19;5008986;28;20026;-74
2021/12/08 05:16:07;;;;;;;0.00;0.00;;;;;;;3.01;88.30;97917.94;4989997;28;20026;-71
2021/12/08 05:18:39;;;;;;;0.22;0.22;;;;;;;3.11;88.23;97924.34;5006392;28;20042;-72
2021/12/08 05:21:20;;;;;;;0.08;0.08;;;;;;;3.17;87.74;97941.81;5009734;28;20113;-78
2021/12/08 05:23:48;;;;;;;0.20;0.20;;;;;;;3.17;87.35;97939.19;4985777;28;20034;-74
2021/12/08 05:26:21;;;;;;;0.00;0.00;;;;;;;3.14;87.30;97940.50;4994300;28;20026;-75
2021/12/08 05:28:48;;;;;;;0.00;0.00;;;;;;;3.18;86.72;97956.63;4976292;28;20038;-68
2021/12/08 05:31:18;;;;;;;0.10;0.10;;;;;;;3.17;86.69;97955.84;5004388;28;20179;-72
2021/12/08 05:33:45;;;;;;;0.00;0.00;;;;;;;3.13;85.90;97940.75;4991570;28;20474;-72
2021/12/08 05:36:13;;;;;;;0.00;0.00;;;;;;;3.22;86.12;97959.56;4993329;28;20027;-72
2021/12/08 05:38:41;;;;;;;0.00;0.00;;;;;;;3.12;85.85;97955.78;4993180;28;20077;-72
2021/12/08 05:41:12;;;;;;;0.00;0.00;;;;;;;3.23;86.03;97967.22;4993317;28;20069;-73
2021/12/08 05:43:38;;;;;;;0.00;0.00;;;;;;;3.25;85.27;97970.41;4993375;28;20030;-72
2021/12/08 05:46:04;;;;;;;0.28;0.28;;;;;;;3.27;85.57;97981.53;4992955;28;20030;-72
2021/12/08 05:48:32;;;;;;;0.00;0.00;;;;;;;3.20;84.75;97984.38;4992939;28;20064;-72
2021/12/08 05:51:23;;;;;;;0.10;0.10;;;;;;;3.28;84.56;97995.53;4992919;28;20023;-72
2021/12/08 05:53:50;;;;;;;0.00;0.00;;;;;;;3.32;84.80;97993.97;4992744;28;20037;-73
2021/12/08 05:56:18;;;;;;;0.32;0.32;;;;;;;3.29;84.42;98003.19;4992493;28;20026;-73
2021/12/08 05:58:45;;;;;;;0.00;0.00;;;;;;;3.33;84.15;98004.31;4975447;28;20034;-73
2021/12/08 06:01:12;;;;;;;0.00;0.00;;;;;;;3.36;83.69;97998.50;4992993;28;20026;-73
2021/12/08 06:03:41;;;;;;;0.00;0.00;;;;;;;3.35;83.15;98004.03;4975381;28;20387;-73
2021/12/08 06:06:08;;;;;;;0.00;0.00;;;;;;;3.41;82.39;98002.25;4975153;28;20084;-73
2021/12/08 06:08:35;;;;;;;0.00;0.00;;;;;;;3.36;82.12;98001.13;4974954;28;20030;-73
2021/12/08 06:11:03;;;;;;;0.00;0.00;;;;;;;3.48;81.90;98016.03;4992483;28;20029;-73
2021/12/08 06:13:29;;;;;;;0.00;0.00;;;;;;;3.48;82.03;98018.69;4992173;28;20026;-74
2021/12/08 06:15:55;;;;;;;0.00;0.00;;;;;;;3.46;80.51;98013.63;4975297;28;20030;-72
2021/12/08 06:18:24;;;;;;;0.00;0.00;;;;;;;3.52;80.76;98020.53;4975056;28;20041;-71
2021/12/08 06:20:51;;;;;;;;;;;;;;;3.58;80.76;98031.16;4993007;28;20022;-73
2021/12/08 06:23:16;;;;;;;0.00;0.00;;;;;;;3.58;80.12;98026.66;4974963;28;20545;-71
2021/12/08 06:25:42;;;;;;;0.00;0.00;;;;;;;3.50;79.87;98014.72;4975068;28;20149;-74
2021/12/08 06:28:09;;;;;;;0.00;0.00;;;;;;;3.60;79.23;98027.22;4992489;28;20363;-74
2021/12/08 06:30:37;;;;;;;0.00;0.00;;;;;;;3.57;78.88;98019.78;4974764;28;20041;-71
2021/12/08 06:33:04;;;;;;;0.00;0.00;;;;;;;3.66;78.65;98033.31;4992119;28;20030;-72
2021/12/08 06:35:35;;;;;;;3.40;1.77;;;;;;;3.71;79.33;98043.13;4974658;28;20030;-72
2021/12/08 06:38:01;;;;;;;0.00;0.00;;;;;;;3.71;79.63;98037.84;4974876;28;20105;-72
2021/12/08 06:40:34;;;;;;;0.00;0.00;;;;;;;3.78;78.69;98052.41;4974510;28;20473;-72
2021/12/08 06:43:05;;;;;;;0.00;0.00;;;;;;;3.73;77.68;98044.47;4974709;28;20037;-72
2021/12/08 06:45:36;;;;;;;0.13;0.13;;;;;;;3.77;78.05;98066.72;4992100;28;20585;-73
2021/12/08 06:48:06;;;;;;;0.00;0.00;;;;;;;3.68;78.04;98050.50;4992252;28;20018;-74
2021/12/08 06:50:37;;;;;;;0.00;0.00;;;;;;;3.72;77.84;98057.94;4992157;28;20030;-74
2021/12/08 06:53:03;;;;;;;0.00;0.00;;;;;;;3.85;78.33;98076.00;4992399;28;20606;-74
2021/12/08 06:55:46;;;;;;;0.00;0.00;;;;;;;3.82;78.09;98076.50;4991837;28;20030;-74
2021/12/08 06:58:18;;;;;;;0.10;0.10;;;;;;;3.85;77.14;98076.78;4974510;28;20026;-74
2021/12/08 07:01:29;;;;;;;1.00;1.00;;;;;;;3.83;77.12;98073.63;4974475;28;20027;-74
2021/12/08 07:06:56;;;;;;;0.00;0.00;;;;;;;4.00;77.34;98091.97;4992041;28;20050;-74
2021/12/08 07:09:40;;;;;;;0.00;0.00;;;;;;;4.05;76.89;98100.97;4974054;28;20026;-72
2021/12/08 07:12:38;;;;;;;0.00;0.00;;;;;;;4.08;77.17;98105.78;4974337;28;20034;-72
2021/12/08 07:15:19;;;;;;;0.00;0.00;;;;;;;4.08;77.48;98111.84;4974121;28;20026;-72
2021/12/08 07:17:49;;;;;;;0.00;0.00;;;;;;;4.11;76.74;98107.91;4991741;28;20038;-72
2021/12/08 07:20:40;;;;;;;0.00;0.00;;;;;;;4.04;76.17;98086.97;4991422;28;20453;-73
2021/12/08 07:23:05;;;;;;;0.00;0.00;;;;;;;4.10;76.66;98101.00;4991500;28;20486;-72
2021/12/08 07:25:33;;;;;;;0.00;0.00;;;;;;;4.10;76.23;98101.81;4991780;28;20034;-73
2021/12/08 07:27:59;;;;;;;0.00;0.00;;;;;;;4.18;76.69;98118.25;4997227;28;20027;-73
2021/12/08 07:30:35;;;;;;;0.00;0.00;;;;;;;4.21;76.15;98120.38;4980440;28;20135;-73
2021/12/08 07:33:01;;;;;;;0.00;0.00;;;;;;;4.23;75.43;98126.22;4997937;28;20030;-73
2021/12/08 07:35:32;;;;;;;0.00;0.00;;;;;;;4.23;76.51;98123.56;4980332;28;20042;-73
2021/12/08 07:37:59;;;;;;;0.00;0.00;;;;;;;4.32;76.94;98135.25;4980570;28;20382;-72
2021/12/08 07:40:51;;;;;;;0.00;0.00;;;;;;;4.36;76.51;98146.13;4997753;28;20030;-73
2021/12/08 07:43:20;;;;;;;0.00;0.00;;;;;;;4.24;75.46;98127.81;4998091;28;20030;-73
2021/12/08 07:46:03;;;;;;;0.20;0.20;;;;;;;4.33;76.13;98150.91;4980468;28;20030;-73
2021/12/08 07:48:34;;;;;;;0.65;0.65;;;;;;;4.27;75.70;98128.09;4997901;28;20030;-73
2021/12/08 07:51:18;;;;;;;0.00;0.00;;;;;;;4.38;75.68;98141.38;4998020;28;20413;-73
2021/12/08 07:53:45;;;;;;;0.00;0.00;;;;;;;4.38;75.11;98154.63;4980239;28;20072;-73
2021/12/08 07:56:14;;;;;;;0.25;0.25;;;;;;;4.34;75.75;98143.75;4980470;28;20481;-72
2021/12/08 07:58:43;;;;;;;0.20;0.20;;;;;;;4.39;75.28;98149.06;4980245;28;20030;-73
2021/12/08 08:01:25;;;;;;;0.00;0.00;;;;;;;4.27;75.04;98122.00;4997803;28;20026;-73
2021/12/08 08:03:52;;;;;;;0.22;0.22;;;;;;;4.41;75.33;98149.59;4997684;28;20022;-73
2021/12/08 08:06:23;;;;;;;0.08;0.08;;;;;;;4.49;75.43;98151.78;4980242;28;20057;-73
2021/12/08 08:08:49;;;;;;;0.00;0.00;;;;;;;4.48;74.67;98159.97;4997590;28;20034;-73
2021/12/08 08:11:26;;;;;;;0.00;0.00;;;;;;;4.54;74.93;98153.66;4997576;28;20490;-73
2021/12/08 08:13:52;;;;;;;0.22;0.22;;;;;;;4.52;75.28;98139.03;4997816;28;20034;-73
2021/12/08 08:16:24;;;;;;;0.00;0.00;;;;;;;4.58;74.99;98154.72;4997768;28;20038;-73
2021/12/08 08:18:58;;;;;;;0.55;0.55;;;;;;;4.60;74.47;98147.31;4980260;28;20037;-73
2021/12/08 08:21:29;;;;;;;0.10;0.10;;;;;;;4.65;73.73;98152.63;4997437;28;20022;-72
2021/12/08 08:23:55;;;;;;;0.00;0.00;;;;;;;4.68;74.11;98145.22;4998012;28;20031;-71
2021/12/08 08:26:23;;;;;;;0.00;0.00;;;;;;;4.72;74.01;98147.06;4980135;28;20106;-72
2021/12/08 08:28:51;;;;;;;0.00;0.00;;;;;;;4.75;73.71;98156.38;4997715;28;20026;-72
2021/12/08 08:31:26;;;;;;;0.65;0.65;;;;;;;4.81;73.32;98150.03;4997626;28;20474;-72
2021/12/08 08:33:52;;;;;;;0.00;0.00;;;;;;;4.84;74.07;98161.97;4997612;28;20157;-72
2021/12/08 08:36:23;;;;;;;0.00;0.00;;;;;;;4.87;73.90;98161.44;4980103;28;20026;-72
2021/12/08 08:38:50;;;;;;;0.00;0.00;;;;;;;4.94;73.40;98152.19;4994022;28;20058;-72
2021/12/08 08:41:24;;;;;;;0.00;0.00;;;;;;;4.97;74.34;98151.66;4994398;28;20033;-72
2021/12/08 08:43:53;;;;;;;0.00;0.00;;;;;;;4.99;73.47;98143.44;4976782;28;20026;-72
2021/12/08 08:46:26;;;;;;;0.10;0.10;;;;;;;5.11;73.90;98153.81;4992947;28;20482;-72
2021/12/08 08:49:01;;;;;;;0.00;0.00;;;;;;;5.16;73.32;98156.47;4994410;28;20030;-72
2021/12/08 08:51:31;;;;;;;0.00;0.00;;;;;;;5.21;74.05;98142.44;4993805;28;20027;-72
2021/12/08 08:54:03;;;;;;;0.15;0.15;;;;;;;5.26;72.60;98145.91;4976613;28;20033;-72
2021/12/08 08:56:33;;;;;;;0.00;0.00;;;;;;;5.29;71.86;98142.72;4993971;28;20033;-72
2021/12/08 08:59:12;;;;;;;0.10;0.10;;;;;;;5.40;71.81;98145.38;4993923;28;20490;-72
2021/12/08 09:01:42;;;;;;;1.67;1.58;;;;;;;5.40;72.51;98134.78;4976468;28;20050;-71
2021/12/08 09:04:13;;;;;;;0.10;0.10;;;;;;;5.52;72.19;98155.75;4976490;28;20113;-72
2021/12/08 09:06:44;;;;;;;0.00;0.00;;;;;;;5.46;71.30;98136.38;4993781;28;20137;-72
2021/12/08 09:09:14;;;;;;;0.00;0.00;;;;;;;5.52;71.55;98153.09;4994052;28;20037;-72
2021/12/08 09:11:50;;;;;;;0.00;0.00;;;;;;;5.58;71.72;98149.38;4993516;28;20030;-72
2021/12/08 09:14:28;;;;;;;1.45;1.02;;;;;;;5.60;71.15;98156.00;4993679;28;20058;-72
2021/12/08 09:17:08;;;;;;;1.25;0.73;;;;;;;5.61;70.28;98154.16;4994201;28;20033;-72
2021/12/08 09:19:42;;;;;;;0.57;0.38;;;;;;;5.67;71.09;98161.03;4976127;28;20053;-72
2021/12/08 09:22:10;;;;;;;0.00;0.00;;;;;;;5.71;70.48;98148.84;4993677;28;20031;-72
2021/12/08 09:24:48;;;;;;;0.00;0.00;;;;;;;5.65;70.64;98152.56;4993547;28;20076;-72
2021/12/08 09:27:22;;;;;;;0.00;0.00;;;;;;;5.67;70.37;98141.69;4993765;28;20119;-72
2021/12/08 09:29:55;;;;;;;0.00;0.00;;;;;;;5.71;71.06;98140.09;4993487;28;20030;-72
2021/12/08 09:32:26;;;;;;;0.17;0.13;;;;;;;5.73;70.99;98141.41;4993806;28;20091;-72
2021/12/08 09:34:58;;;;;;;0.20;0.20;;;;;;;5.81;71.01;98147.25;4993243;28;20101;-72
2021/12/08 09:37:33;;;;;;;1.45;0.52;;;;;;;5.66;71.06;98113.56;4993481;28;20027;-72
2021/12/08 09:40:25;;;;;;;0.35;0.35;;;;;;;5.85;70.07;98135.84;4993039;28;20030;-72
2021/12/08 09:42:56;;;;;;;2.28;0.88;;;;;;;5.93;70.12;98153.88;4980317;28;20043;-72
2021/12/08 09:45:37;;;;;;;0.22;0.22;;;;;;;5.74;69.38;98113.03;4993085;28;20030;-72
2021/12/08 09:48:06;;;;;;;0.47;0.40;;;;;;;6.02;69.71;98151.50;4993027;28;20105;-72
2021/12/08 09:50:32;;;;;;;;;;;;;;;6.05;69.22;98158.94;4993039;28;20382;-73
2021/12/08 09:52:57;;;;;;;0.75;0.55;;;;;;;5.99;68.83;98148.59;4992975;28;20490;-72
2021/12/08 09:55:23;;;;;;;0.00;0.00;;;;;;;5.99;69.30;98144.06;4993387;28;20137;-72
2021/12/08 09:57:48;;;;;;;0.00;0.00;;;;;;;5.96;68.64;98138.47;4992885;28;20026;-73
2021/12/08 10:00:29;;;;;;;1.10;0.60;;;;;;;5.91;69.37;98136.63;4975534;28;20157;-73
2021/12/08 10:02:58;;;;;;;0.00;0.00;;;;;;;5.89;70.07;98125.47;4975507;28;20052;-73
2021/12/08 10:05:27;;;;;;;0.08;0.08;;;;;;;5.96;69.50;98133.16;4992854;28;20066;-73
2021/12/08 10:07:53;;;;;;;0.00;0.00;;;;;;;5.98;69.87;98141.66;4992673;28;20180;-73
2021/12/08 10:10:19;;;;;;;0.10;0.10;;;;;;;5.96;69.49;98138.47;4992611;28;20109;-73
2021/12/08 10:12:45;;;;;;;0.00;0.00;;;;;;;6.01;68.56;98143.81;4975062;28;20031;-73
2021/12/08 10:15:15;;;;;;;0.08;0.08;;;;;;;5.97;68.52;98140.06;4975220;28;20057;-73
2021/12/08 10:17:40;;;;;;;0.35;0.35;;;;;;;5.97;69.10;98132.09;4974983;28;20057;-73
2021/12/08 10:20:27;;;;;;;0.32;0.32;;;;;;;6.04;69.21;98151.22;4992902;28;20135;-73
2021/12/08 10:23:27;;;;;;;0.00;0.00;;;;;;;6.04;69.27;98151.22;4992452;28;20106;-73
2021/12/08 10:26:07;;;;;;;0.00;0.00;;;;;;;6.07;69.48;98150.72;4975048;28;20121;-73
2021/12/08 10:28:35;;;;;;;0.20;0.20;;;;;;;6.06;68.59;98155.19;4992561;28;20030;-72
2021/12/08 10:31:17;;;;;;;0.00;0.00;;;;;;;6.07;68.35;98146.19;4975106;28;20121;-72
2021/12/08 10:34:09;;;;;;;0.45;0.45;;;;;;;6.13;68.28;98152.28;4974809;28;20037;-73
2021/12/08 10:36:47;;;;;;;0.20;0.20;;;;;;;6.10;68.17;98150.16;4992173;28;20038;-73
2021/12/08 10:39:31;;;;;;;16.98;0.80;;;;;;;6.03;69.26;98137.19;4992437;28;20470;-73
2021/12/08 10:42:09;;;;;;;0.00;0.00;;;;;;;6.19;69.31;98159.19;4992209;28;20037;-72
2021/12/08 10:44:44;;;;;;;3.60;1.10;;;;;;;6.19;69.22;98153.88;4974451;28;20038;-72
2021/12/08 10:47:12;;;;;;;0.00;0.00;;;;;;;6.17;69.56;98134.75;4974623;28;20262;-72
2021/12/08 10:54:53;;;;;;;0.00;0.00;;;;;;;6.33;68.83;98154.09;4991876;28;20077;-72
2021/12/08 10:57:23;;;;;;;0.38;0.38;;;;;;;6.35;69.21;98156.50;4992262;28;20037;-73
2021/12/08 11:00:12;;;;;;;0.00;0.00;;;;;;;6.48;69.12;98171.03;4991843;28;20486;-73
2021/12/08 11:02:46;;;;;;;0.10;0.10;;;;;;;6.49;69.12;98173.44;4991046;28;20030;-73
2021/12/08 11:05:23;;;;;;;0.13;0.13;;;;;;;6.53;68.71;98174.50;4991817;28;20122;-73
2021/12/08 11:08:01;;;;;;;0.30;0.30;;;;;;;6.46;67.93;98163.34;4991486;28;20097;-73
2021/12/08 11:10:27;;;;;;;0.65;0.65;;;;;;;6.57;69.43;98169.44;4991584;28;20603;-73
2021/12/08 11:12:55;;;;;;;0.00;0.00;;;;;;;6.55;68.83;98163.59;4974273;28;20104;-73
2021/12/08 11:15:23;;;;;;;0.00;0.00;;;;;;;6.65;68.64;98168.88;4974440;28;20022;-73
2021/12/08 11:18:11;;;;;;;0.03;0.03;;;;;;;6.62;68.64;98155.34;4991599;28;20034;-73
2021/12/08 11:20:45;;;;;;;0.22;0.22;;;;;;;6.73;68.45;98170.16;4983835;28;20045;-72
2021/12/08 11:23:15;;;;;;;0.00;0.00;;;;;;;6.77;68.05;98173.09;4974225;28;20042;-73
2021/12/08 11:25:47;;;;;;;0.00;0.00;;;;;;;6.78;68.33;98159.50;4991514;28;20525;-73
2021/12/08 11:28:29;;;;;;;0.70;0.70;;;;;;;6.86;69.05;98172.25;4973819;28;20034;-73
2021/12/08 11:31:08;;;;;;;0.22;0.22;;;;;;;6.88;68.42;98164.00;4991132;28;20031;-73
2021/12/08 11:33:37;;;;;;;0.20;0.20;;;;;;;6.91;68.04;98163.47;4974118;28;20040;-73
2021/12/08 11:36:12;;;;;;;0.00;0.00;;;;;;;6.91;68.29;98157.31;4991685;28;20586;-73
2021/12/08 11:38:38;;;;;;;0.20;0.20;;;;;;;6.95;68.53;98156.50;4991399;28;20466;-73
2021/12/08 11:41:24;;;;;;;0.00;0.00;;;;;;;7.05;68.13;98166.28;4973990;28;20026;-73
2021/12/08 11:43:57;;;;;;;0.10;0.10;;;;;;;7.02;67.82;98166.88;4991322;28;20145;-73
2021/12/08 11:46:23;;;;;;;0.85;0.85;;;;;;;7.12;68.08;98169.44;4991413;28;20063;-73
2021/12/08 11:49:03;;;;;;;0.43;0.43;;;;;;;7.13;66.72;98170.22;4991203;28;20031;-72
2021/12/08 11:51:31;;;;;;;0.65;0.43;;;;;;;7.13;66.92;98167.56;4991400;28;20035;-73
2021/12/08 11:53:57;;;;;;;0.20;0.20;;;;;;;7.17;67.42;98166.75;4991022;28;20028;-73
2021/12/08 11:56:30;;;;;;;0.00;0.00;;;;;;;7.26;65.01;98158.22;4991252;28;20034;-73
2021/12/08 11:58:56;;;;;;;0.00;0.00;;;;;;;7.30;65.40;98170.69;4991218;28;20109;-74
2021/12/08 12:01:22;;;;;;;0.13;0.13;;;;;;;7.34;66.23;98166.38;4973791;28;20121;-74
2021/12/08 12:03:48;;;;;;;0.08;0.08;;;;;;;7.36;66.11;98158.13;4973516;28;20026;-74
2021/12/08 12:06:13;;;;;;;0.38;0.38;;;;;;;7.42;66.77;98161.56;4970229;28;20047;-74
2021/12/08 12:08:39;;;;;;;0.10;0.10;;;;;;;7.49;65.03;98173.47;4971766;28;20521;-73
2021/12/08 12:11:04;;;;;;;0.35;0.35;;;;;;;7.42;65.24;98156.22;4972101;28;20031;-72
2021/12/08 12:13:30;;;;;;;0.10;0.10;;;;;;;7.46;65.24;98165.28;4973404;28;20560;-74
2021/12/08 12:15:57;;;;;;;0.20;0.20;;;;;;;7.42;64.79;98169.53;4974899;28;20033;-74
2021/12/08 12:18:30;;;;;;;0.00;0.00;;;;;;;7.49;65.49;98184.09;4975172;28;20112;-72
2021/12/08 12:20:59;;;;;;;0.28;0.22;;;;;;;7.40;65.84;98182.31;4975208;28;20066;-72
2021/12/08 12:23:36;;;;;;;0.00;0.00;;;;;;;7.48;65.92;98197.69;4975373;28;20053;-72
2021/12/08 12:26:19;;;;;;;0.00;0.00;;;;;;;7.39;66.00;98192.16;4973798;28;20522;-72
2021/12/08 12:29:15;;;;;;;0.93;0.93;;;;;;;7.49;65.52;98192.09;4975137;28;20096;-72
2021/12/08 12:31:52;;;;;;;0.45;0.45;;;;;;;7.37;65.13;98195.13;4974991;28;20058;-72
2021/12/08 12:34:20;;;;;;;0.08;0.08;;;;;;;7.50;65.33;98204.31;4973924;28;20136;-73
2021/12/08 12:36:46;;;;;;;0.63;0.63;;;;;;;7.48;64.58;98197.69;4974855;28;20030;-73
2021/12/08 12:39:18;;;;;;;0.13;0.13;;;;;;;7.46;64.53;98199.84;4974819;28;20039;-72
2021/12/08 12:41:56;;;;;;;0.30;0.30;;;;;;;7.40;64.37;98196.41;4974782;28;20042;-72